createdAt,value
2018-04-29T00:00:14.116Z,14.97
2018-04-29T00:01:13.223Z,14.94
2018-04-29T00:02:13.215Z,14.92
2018-04-29T00:03:13.224Z,14.72
2018-04-29T00:04:13.238Z,14.59
2018-04-29T00:05:14.693Z,14.59
2018-04-29T00:06:13.228Z,14.54
2018-04-29T00:07:13.214Z,14.41
2018-04-29T00:08:12.977Z,14.51
2018-04-29T00:09:12.966Z,14.48
2018-04-29T00:10:14.840Z,14.32
2018-04-29T00:11:12.955Z,14.41
2018-04-29T00:12:13.218Z,14.36
2018-04-29T00:13:12.961Z,14.29
2018-04-29T00:14:13.229Z,14.22
2018-04-29T00:15:15.264Z,14.17
2018-04-29T00:16:12.957Z,14.18
2018-04-29T00:17:12.706Z,14.23
2018-04-29T00:18:13.233Z,14.37
2018-04-29T00:19:13.212Z,14.35
2018-04-29T00:20:14.917Z,14.4
2018-04-29T00:21:12.938Z,14.44
2018-04-29T00:22:13.183Z,14.53
2018-04-29T00:23:13.180Z,14.53
2018-04-29T00:24:13.190Z,14.66
2018-04-29T00:25:14.449Z,14.65
2018-04-29T00:26:13.203Z,14.69
2018-04-29T00:27:12.938Z,14.7
2018-04-29T00:28:12.936Z,14.79
2018-04-29T00:29:13.180Z,14.81
2018-04-29T00:30:15.156Z,14.84
2018-04-29T00:31:13.181Z,14.86
2018-04-29T00:32:12.929Z,14.89
2018-04-29T00:33:12.915Z,14.97
2018-04-29T00:34:13.170Z,15.03
2018-04-29T00:35:14.353Z,14.89
2018-04-29T00:36:12.922Z,15
2018-04-29T00:37:12.669Z,14.99
2018-04-29T00:38:13.185Z,15.04
2018-04-29T00:39:13.174Z,15.04
2018-04-29T00:40:14.416Z,14.92
2018-04-29T00:41:12.916Z,14.91
2018-04-29T00:42:13.177Z,14.97
2018-04-29T00:43:13.173Z,14.96
2018-04-29T00:44:12.907Z,15
2018-04-29T00:45:14.405Z,15
2018-04-29T00:46:13.175Z,15
2018-04-29T00:47:13.173Z,15.02
2018-04-29T00:48:13.177Z,14.99
2018-04-29T00:49:13.167Z,15.09
2018-04-29T00:57:31.627Z,14.99
2018-04-29T00:58:07.016Z,14.97
2018-04-29T00:59:07.253Z,14.99
2018-04-29T01:00:06.825Z,14.97
2018-04-29T01:01:06.793Z,14.96
2018-04-29T01:02:06.791Z,15
2018-04-29T01:03:07.358Z,14.96
2018-04-29T01:04:07.013Z,14.86
2018-04-29T01:05:06.786Z,14.78
2018-04-29T01:06:06.866Z,14.78
2018-04-29T01:07:07.039Z,14.85
2018-04-29T01:08:07.361Z,14.94
2018-04-29T01:09:06.773Z,14.86
2018-04-29T01:10:06.507Z,14.86
2018-04-29T01:11:06.565Z,14.86
2018-04-29T01:12:07.010Z,14.91
2018-04-29T01:13:07.605Z,14.89
2018-04-29T01:14:06.766Z,14.84
2018-04-29T01:15:06.769Z,14.91
2018-04-29T01:16:06.999Z,14.94
2018-04-29T01:17:06.770Z,15.03
2018-04-29T01:18:07.322Z,14.97
2018-04-29T01:19:06.999Z,15.02
2018-04-29T01:20:06.791Z,14.99
2018-04-29T01:21:07.007Z,15.02
2018-04-29T01:22:06.769Z,15.02
2018-04-29T01:23:06.851Z,14.97
2018-04-29T01:24:06.487Z,14.81
2018-04-29T01:25:07.003Z,14.78
2018-04-29T01:26:06.991Z,14.77
2018-04-29T01:27:06.766Z,14.65
2018-04-29T01:28:07.055Z,14.65
2018-04-29T01:29:06.483Z,14.7
2018-04-29T01:30:06.482Z,14.84
2018-04-29T01:31:06.746Z,14.81
2018-04-29T01:32:06.984Z,14.82
2018-04-29T01:33:06.732Z,14.81
2018-04-29T01:34:06.744Z,14.88
2018-04-29T01:35:06.980Z,14.91
2018-04-29T01:36:06.979Z,14.85
2018-04-29T01:37:06.988Z,14.91
2018-04-29T01:38:06.763Z,14.96
2018-04-29T01:39:06.987Z,14.91
2018-04-29T01:40:06.978Z,14.91
2018-04-29T01:41:06.991Z,14.94
2018-04-29T01:42:06.744Z,14.86
2018-04-29T01:43:06.765Z,15
2018-04-29T01:44:06.739Z,14.97
2018-04-29T01:45:06.749Z,14.97
2018-04-29T01:46:06.970Z,14.91
2018-04-29T01:47:06.720Z,14.86
2018-04-29T01:48:06.967Z,14.88
2018-04-29T01:49:06.963Z,14.92
2018-04-29T01:50:06.976Z,14.78
2018-04-29T01:51:06.728Z,14.82
2018-04-29T01:52:06.969Z,14.88
2018-04-29T01:53:06.959Z,14.82
2018-04-29T01:54:07.026Z,14.78
2018-04-29T01:55:06.972Z,14.85
2018-04-29T01:56:06.712Z,14.92
2018-04-29T01:57:06.692Z,14.88
2018-04-29T01:58:06.956Z,14.85
2018-04-29T01:59:06.707Z,14.91
2018-04-29T02:00:06.720Z,14.88
2018-04-29T02:01:06.965Z,14.86
2018-04-29T02:02:06.958Z,14.81
2018-04-29T02:03:06.933Z,14.86
2018-04-29T02:04:06.688Z,14.88
2018-04-29T02:05:06.937Z,14.92
2018-04-29T02:06:06.937Z,14.88
2018-04-29T02:07:06.693Z,14.85
2018-04-29T02:08:06.427Z,14.84
2018-04-29T02:09:06.936Z,14.84
2018-04-29T02:10:06.944Z,14.88
2018-04-29T02:11:06.783Z,14.89
2018-04-29T02:12:06.935Z,14.84
2018-04-29T02:13:06.933Z,14.89
2018-04-29T02:14:06.672Z,14.92
2018-04-29T02:15:06.424Z,14.94
2018-04-29T02:16:06.681Z,14.86
2018-04-29T02:17:06.418Z,14.85
2018-04-29T02:18:06.691Z,14.81
2018-04-29T02:19:06.939Z,14.73
2018-04-29T02:20:06.969Z,14.81
2018-04-29T02:21:06.939Z,14.77
2018-04-29T02:22:06.427Z,14.62
2018-04-29T02:23:06.944Z,14.68
2018-04-29T02:24:06.986Z,14.66
2018-04-29T02:25:06.936Z,14.65
2018-04-29T02:26:06.679Z,14.65
2018-04-29T02:27:06.697Z,14.6
2018-04-29T02:28:06.659Z,14.58
2018-04-29T02:29:06.909Z,14.62
2018-04-29T02:30:06.928Z,14.55
2018-04-29T02:31:06.906Z,14.48
2018-04-29T02:32:06.660Z,14.4
2018-04-29T02:33:06.956Z,14.48
2018-04-29T02:34:06.653Z,14.51
2018-04-29T02:35:06.913Z,14.44
2018-04-29T02:36:06.655Z,14.45
2018-04-29T02:37:06.963Z,14.41
2018-04-29T02:38:06.916Z,14.3
2018-04-29T02:39:06.643Z,14.36
2018-04-29T02:40:06.402Z,14.35
2018-04-29T02:41:06.897Z,14.29
2018-04-29T02:42:06.904Z,14.28
2018-04-29T02:43:06.897Z,14.22
2018-04-29T02:44:06.638Z,14.23
2018-04-29T02:45:06.650Z,14.26
2018-04-29T02:46:06.889Z,14.33
2018-04-29T02:47:06.644Z,14.22
2018-04-29T02:48:06.630Z,14.25
2018-04-29T02:49:06.895Z,14.18
2018-04-29T02:50:06.899Z,14.22
2018-04-29T02:51:06.886Z,14.23
2018-04-29T02:52:06.627Z,14.22
2018-04-29T02:53:06.885Z,14.22
2018-04-29T02:54:06.890Z,14.23
2018-04-29T02:55:06.895Z,14.2
2018-04-29T02:56:06.622Z,14.2
2018-04-29T02:57:06.892Z,14.17
2018-04-29T02:58:06.634Z,14.23
2018-04-29T02:59:06.611Z,14.22
2018-04-29T03:00:06.883Z,14.11
2018-04-29T03:01:06.994Z,14.08
2018-04-29T03:02:06.898Z,14.1
2018-04-29T03:03:06.605Z,14.07
2018-04-29T03:04:06.866Z,13.99
2018-04-29T03:05:06.884Z,14.04
2018-04-29T03:06:06.893Z,14
2018-04-29T03:07:06.598Z,14
2018-04-29T03:08:06.601Z,13.89
2018-04-29T03:09:06.863Z,13.97
2018-04-29T03:10:06.857Z,13.97
2018-04-29T03:11:06.852Z,13.9
2018-04-29T03:12:06.867Z,13.92
2018-04-29T03:13:06.592Z,14
2018-04-29T03:14:06.848Z,13.92
2018-04-29T03:15:06.590Z,13.93
2018-04-29T03:16:06.586Z,13.95
2018-04-29T03:17:06.585Z,13.96
2018-04-29T03:18:06.858Z,13.9
2018-04-29T03:19:06.856Z,13.89
2018-04-29T03:20:06.854Z,13.83
2018-04-29T03:21:06.574Z,13.89
2018-04-29T03:22:07.297Z,13.87
2018-04-29T03:23:06.890Z,13.9
2018-04-29T03:24:07.036Z,13.77
2018-04-29T03:25:06.968Z,13.77
2018-04-29T03:26:06.703Z,13.85
2018-04-29T03:27:06.711Z,13.74
2018-04-29T03:28:06.568Z,13.7
2018-04-29T03:29:06.830Z,13.77
2018-04-29T03:38:16.271Z,13.47
2018-04-29T03:39:16.275Z,13.49
2018-04-29T03:40:17.514Z,13.47
2018-04-29T03:41:16.283Z,13.49
2018-04-29T03:42:16.017Z,13.47
2018-04-29T03:43:17.909Z,13.49
2018-04-29T03:44:16.268Z,13.49
2018-04-29T03:45:16.769Z,13.46
2018-04-29T03:46:16.032Z,13.49
2018-04-29T03:47:16.004Z,13.47
2018-04-29T03:48:16.004Z,13.42
2018-04-29T03:49:15.761Z,13.39
2018-04-29T03:50:17.223Z,13.41
2018-04-29T03:51:16.266Z,13.37
2018-04-29T03:52:16.264Z,13.39
2018-04-29T03:53:16.278Z,13.28
2018-04-29T03:54:15.989Z,13.35
2018-04-29T03:55:16.820Z,13.27
2018-04-29T03:56:16.265Z,13.3
2018-04-29T03:57:15.736Z,13.3
2018-04-29T03:58:16.181Z,13.15
2018-04-29T03:59:15.981Z,13.2
2018-04-29T04:00:17.741Z,13.19
2018-04-29T04:01:16.226Z,13.23
2018-04-29T04:02:16.227Z,13.2
2018-04-29T04:03:16.224Z,13.25
2018-04-29T04:04:16.223Z,13.15
2018-04-29T04:05:17.432Z,13.04
2018-04-29T04:06:15.974Z,13.11
2018-04-29T04:07:16.260Z,13
2018-04-29T04:08:16.209Z,13
2018-04-29T04:09:15.966Z,13
2018-04-29T04:10:17.343Z,12.98
2018-04-29T04:11:15.713Z,12.94
2018-04-29T04:12:16.202Z,12.98
2018-04-29T04:13:17.349Z,12.97
2018-04-29T04:14:15.954Z,12.97
2018-04-29T04:15:17.795Z,13.01
2018-04-29T04:16:15.698Z,12.95
2018-04-29T04:17:15.943Z,12.98
2018-04-29T04:18:15.937Z,12.94
2018-04-29T04:19:16.189Z,12.82
2018-04-29T04:20:16.888Z,12.9
2018-04-29T04:21:16.186Z,12.82
2018-04-29T04:22:16.192Z,12.87
2018-04-29T04:23:15.932Z,12.86
2018-04-29T04:24:16.183Z,12.79
2018-04-29T04:25:16.650Z,12.85
2018-04-29T04:26:16.171Z,12.79
2018-04-29T04:27:15.931Z,12.79
2018-04-29T04:28:15.922Z,12.79
2018-04-29T04:29:15.921Z,12.68
2018-04-29T04:30:17.154Z,12.73
2018-04-29T04:31:16.170Z,12.68
2018-04-29T04:32:16.166Z,12.73
2018-04-29T04:33:15.902Z,12.64
2018-04-29T04:34:16.298Z,12.64
2018-04-29T04:35:17.717Z,12.65
2018-04-29T04:36:15.919Z,12.7
2018-04-29T04:37:16.148Z,12.62
2018-04-29T04:38:16.144Z,12.62
2018-04-29T04:39:15.925Z,12.64
2018-04-29T04:40:17.028Z,12.68
2018-04-29T04:41:16.133Z,12.68
2018-04-29T04:42:15.638Z,12.65
2018-04-29T04:43:15.901Z,12.75
2018-04-29T04:44:16.126Z,12.78
2018-04-29T04:45:17.122Z,12.78
2018-04-29T04:46:16.151Z,12.78
2018-04-29T04:47:16.199Z,12.83
2018-04-29T04:48:16.119Z,12.82
2018-04-29T04:49:16.170Z,12.85
2018-04-29T04:50:17.262Z,12.98
2018-04-29T04:51:15.868Z,13.01
2018-04-29T04:52:15.867Z,13.18
2018-04-29T04:53:15.859Z,13.18
2018-04-29T04:54:15.855Z,13.28
2018-04-29T04:55:17.515Z,13.31
2018-04-29T04:56:16.102Z,13.41
2018-04-29T04:57:16.099Z,13.52
2018-04-29T04:58:16.269Z,13.62
2018-04-29T04:59:15.849Z,13.65
2018-04-29T05:00:17.764Z,13.72
2018-04-29T05:01:16.093Z,13.79
2018-04-29T05:02:16.086Z,13.83
2018-04-29T05:03:15.842Z,13.81
2018-04-29T05:04:16.097Z,13.99
2018-04-29T05:05:16.506Z,14.17
2018-04-29T05:06:16.086Z,14.43
2018-04-29T05:07:15.934Z,14.7
2018-04-29T05:08:16.084Z,15.14
2018-04-29T05:09:15.828Z,15.51
2018-04-29T05:10:17.112Z,15.97
2018-04-29T05:11:16.081Z,16.32
2018-04-29T05:12:15.828Z,16.64
2018-04-29T05:13:16.133Z,16.71
2018-04-29T05:14:16.094Z,16.64
2018-04-29T05:15:17.537Z,16.49
2018-04-29T05:16:15.832Z,16.33
2018-04-29T05:17:16.089Z,16.29
2018-04-29T05:18:16.084Z,16.29
2018-04-29T05:19:15.834Z,16.23
2018-04-29T05:20:17.289Z,16.21
2018-04-29T05:21:15.834Z,16.24
2018-04-29T05:22:16.289Z,16.28
2018-04-29T05:23:15.841Z,16.28
2018-04-29T05:24:15.836Z,16.29
2018-04-29T05:25:17.877Z,16.15
2018-04-29T05:26:16.097Z,16.08
2018-04-29T05:27:16.090Z,15.83
2018-04-29T05:28:16.085Z,15.77
2018-04-29T05:29:15.842Z,15.61
2018-04-29T05:30:17.314Z,15.55
2018-04-29T05:31:16.162Z,15.72
2018-04-29T05:32:16.087Z,15.95
2018-04-29T05:33:15.839Z,16.23
2018-04-29T05:34:16.096Z,16.54
2018-04-29T05:35:17.358Z,16.83
2018-04-29T05:36:16.105Z,17.36
2018-04-29T05:37:15.848Z,17.83
2018-04-29T05:38:16.104Z,18.22
2018-04-29T05:39:15.844Z,18.73
2018-04-29T05:40:16.943Z,19.15
2018-04-29T05:41:16.109Z,19.52
2018-04-29T05:42:16.108Z,19.84
2018-04-29T05:43:15.603Z,20.09
2018-04-29T05:44:16.511Z,20.22
2018-04-29T05:45:17.398Z,20.22
2018-04-29T05:46:16.118Z,20.28
2018-04-29T05:47:16.117Z,20.51
2018-04-29T05:48:15.869Z,20.4
2018-04-29T05:49:16.123Z,20.43
2018-04-29T05:50:17.345Z,20.66
2018-04-29T05:51:16.132Z,20.74
2018-04-29T05:52:16.135Z,20.96
2018-04-29T05:53:15.895Z,21.33
2018-04-29T05:54:16.140Z,21.48
2018-04-29T05:55:17.285Z,21.7
2018-04-29T05:56:16.153Z,21.91
2018-04-29T05:57:16.161Z,22.06
2018-04-29T05:58:15.917Z,22.25
2018-04-29T05:59:15.922Z,22.51
2018-04-29T06:00:17.767Z,22.69
2018-04-29T06:01:16.261Z,23.08
2018-04-29T06:02:16.254Z,23.5
2018-04-29T06:03:16.184Z,23.77
2018-04-29T06:04:16.193Z,23.87
2018-04-29T06:05:17.115Z,24.13
2018-04-29T06:06:16.207Z,24.36
2018-04-29T06:07:16.206Z,24.68
2018-04-29T06:08:16.216Z,24.88
2018-04-29T06:09:16.223Z,24.86
2018-04-29T06:10:16.996Z,24.88
2018-04-29T06:11:15.987Z,25.04
2018-04-29T06:12:16.243Z,25.44
2018-04-29T06:13:16.003Z,25.48
2018-04-29T06:22:48.111Z,25.23
2018-04-29T06:23:47.123Z,25.6
2018-04-29T06:24:46.807Z,25.87
2018-04-29T06:25:47.060Z,25.8
2018-04-29T06:26:46.818Z,25.69
2018-04-29T06:27:47.077Z,25.68
2018-04-29T06:28:47.089Z,25.7
2018-04-29T06:29:47.091Z,25.81
2018-04-29T06:30:46.852Z,25.84
2018-04-29T06:31:46.604Z,25.99
2018-04-29T06:32:46.855Z,26.05
2018-04-29T06:33:47.109Z,25.99
2018-04-29T06:34:47.115Z,25.98
2018-04-29T06:35:46.907Z,25.83
2018-04-29T06:36:47.129Z,25.8
2018-04-29T06:37:47.149Z,25.85
2018-04-29T06:38:47.296Z,25.84
2018-04-29T06:39:47.241Z,25.85
2018-04-29T06:40:46.918Z,25.75
2018-04-29T06:41:47.172Z,25.78
2018-04-29T06:42:47.172Z,25.83
2018-04-29T06:43:46.954Z,25.66
2018-04-29T06:44:47.200Z,25.36
2018-04-29T06:45:46.946Z,25.04
2018-04-29T06:46:47.025Z,24.68
2018-04-29T06:47:47.224Z,24.18
2018-04-29T06:48:47.223Z,24.17
2018-04-29T06:49:46.995Z,24.48
2018-04-29T06:50:47.308Z,24.43
2018-04-29T06:51:47.322Z,24.17
2018-04-29T06:52:47.801Z,24.05
2018-04-29T06:53:47.260Z,23.78
2018-04-29T06:54:47.265Z,23.39
2018-04-29T06:55:47.270Z,22.84
2018-04-29T06:56:47.287Z,22.41
2018-04-29T06:57:47.274Z,22
2018-04-29T06:58:47.290Z,21.69
2018-04-29T06:59:47.307Z,21.39
2018-04-29T07:00:47.633Z,21.14
2018-04-29T07:01:46.808Z,20.88
2018-04-29T07:02:47.061Z,20.7
2018-04-29T07:03:46.810Z,20.34
2018-04-29T07:04:46.812Z,20.21
2018-04-29T07:05:47.407Z,20.02
2018-04-29T07:06:47.069Z,19.89
2018-04-29T07:07:47.081Z,19.85
2018-04-29T07:08:47.328Z,19.85
2018-04-29T07:09:47.331Z,19.92
2018-04-29T07:10:47.179Z,19.85
2018-04-29T07:11:47.089Z,20.07
2018-04-29T07:12:46.856Z,20.31
2018-04-29T07:13:47.101Z,20.72
2018-04-29T07:14:47.132Z,21.42
2018-04-29T07:15:47.379Z,21.72
2018-04-29T07:16:47.114Z,21.99
2018-04-29T07:17:47.392Z,22.15
2018-04-29T07:18:47.388Z,22.5
2018-04-29T07:19:47.378Z,22.78
2018-04-29T07:20:47.130Z,23.03
2018-04-29T07:21:47.381Z,23
2018-04-29T07:22:47.140Z,22.91
2018-04-29T07:23:47.142Z,22.8
2018-04-29T07:24:47.398Z,22.76
2018-04-29T07:25:47.402Z,22.78
2018-04-29T07:26:47.164Z,22.9
2018-04-29T07:27:47.426Z,23.03
2018-04-29T07:28:47.613Z,23.2
2018-04-29T07:29:47.169Z,23.36
2018-04-29T07:30:47.174Z,23.4
2018-04-29T07:31:47.442Z,23.39
2018-04-29T07:32:47.437Z,23.47
2018-04-29T07:33:47.437Z,23.65
2018-04-29T07:34:46.955Z,23.92
2018-04-29T07:35:47.451Z,24.21
2018-04-29T07:36:47.461Z,24.33
2018-04-29T07:37:47.458Z,24.17
2018-04-29T07:38:47.465Z,23.92
2018-04-29T07:39:47.599Z,23.83
2018-04-29T07:40:46.975Z,23.69
2018-04-29T07:41:47.242Z,23.66
2018-04-29T07:42:47.231Z,23.5
2018-04-29T07:43:47.241Z,23.2
2018-04-29T07:44:47.251Z,23.17
2018-04-29T07:45:47.525Z,23.47
2018-04-29T07:46:47.510Z,23.76
2018-04-29T07:47:47.275Z,24.21
2018-04-29T07:48:47.265Z,24.7
2018-04-29T07:49:47.273Z,25.01
2018-04-29T07:50:47.534Z,25.32
2018-04-29T07:51:47.299Z,25.5
2018-04-29T07:52:47.452Z,25.69
2018-04-29T07:53:47.045Z,25.85
2018-04-29T07:54:47.570Z,25.96
2018-04-29T07:55:47.319Z,26.07
2018-04-29T07:56:47.066Z,25.96
2018-04-29T07:57:47.323Z,25.87
2018-04-29T07:58:47.336Z,25.98
2018-04-29T07:59:47.592Z,26.06
2018-04-29T08:00:47.487Z,26.21
2018-04-29T08:01:47.599Z,26.51
2018-04-29T08:02:47.351Z,26.73
2018-04-29T08:03:47.364Z,26.96
2018-04-29T08:04:47.616Z,26.95
2018-04-29T08:05:47.149Z,26.99
2018-04-29T08:06:47.839Z,26.99
2018-04-29T08:07:47.635Z,27.1
2018-04-29T08:08:47.640Z,27.02
2018-04-29T08:09:47.657Z,26.71
2018-04-29T08:10:47.417Z,26.6
2018-04-29T08:11:47.662Z,26.43
2018-04-29T08:12:47.436Z,26.52
2018-04-29T08:13:47.452Z,26.73
2018-04-29T08:14:47.686Z,26.97
2018-04-29T08:15:47.902Z,27.07
2018-04-29T08:16:47.700Z,27.03
2018-04-29T08:17:47.716Z,27.07
2018-04-29T08:18:47.470Z,27.29
2018-04-29T08:19:47.726Z,27.48
2018-04-29T08:20:47.724Z,27.75
2018-04-29T08:21:47.746Z,28.1
2018-04-29T08:22:47.564Z,28.33
2018-04-29T08:23:47.528Z,28.14
2018-04-29T08:24:47.523Z,28.11
2018-04-29T08:25:47.524Z,28.07
2018-04-29T08:26:47.536Z,28.15
2018-04-29T08:27:47.769Z,28.26
2018-04-29T08:28:47.781Z,28.3
2018-04-29T08:29:47.543Z,28.38
2018-04-29T08:30:47.547Z,28.39
2018-04-29T08:31:47.803Z,28.32
2018-04-29T08:32:47.572Z,28.1
2018-04-29T08:33:47.818Z,28.07
2018-04-29T08:34:47.860Z,28.29
2018-04-29T08:35:47.586Z,28.37
2018-04-29T08:36:47.849Z,28.39
2018-04-29T08:37:47.844Z,28.04
2018-04-29T08:38:47.600Z,27.58
2018-04-29T08:39:47.606Z,27.17
2018-04-29T08:40:47.615Z,26.83
2018-04-29T08:41:47.727Z,26.18
2018-04-29T08:42:47.640Z,25.63
2018-04-29T08:43:47.655Z,25.13
2018-04-29T08:44:47.397Z,24.81
2018-04-29T08:45:47.661Z,24.55
2018-04-29T08:46:47.916Z,24.3
2018-04-29T08:47:47.915Z,24.01
2018-04-29T08:48:47.678Z,23.87
2018-04-29T08:49:47.685Z,23.74
2018-04-29T08:50:47.748Z,23.74
2018-04-29T08:51:47.956Z,23.62
2018-04-29T08:52:47.955Z,23.61
2018-04-29T08:53:47.970Z,23.54
2018-04-29T08:54:47.972Z,23.51
2018-04-29T08:55:47.727Z,23.5
2018-04-29T08:56:47.477Z,23.41
2018-04-29T08:57:47.731Z,23.43
2018-04-29T08:58:47.992Z,23.39
2018-04-29T08:59:47.998Z,23.46
2018-04-29T09:00:48.007Z,23.44
2018-04-29T09:01:47.771Z,23.48
2018-04-29T09:02:48.021Z,23.4
2018-04-29T09:03:48.022Z,23.37
2018-04-29T09:04:48.033Z,23.36
2018-04-29T09:05:47.785Z,23.37
2018-04-29T09:06:47.536Z,23.41
2018-04-29T09:07:47.785Z,23.34
2018-04-29T09:08:47.844Z,23.41
2018-04-29T09:09:48.056Z,23.34
2018-04-29T09:10:47.798Z,23.44
2018-04-29T09:11:47.820Z,23.44
2018-04-29T09:12:48.057Z,23.44
2018-04-29T09:13:48.070Z,23.46
2018-04-29T09:14:47.826Z,23.44
2018-04-29T09:15:48.085Z,23.48
2018-04-29T09:16:48.225Z,23.5
2018-04-29T09:17:48.089Z,23.56
2018-04-29T09:18:47.835Z,23.65
2018-04-29T09:19:47.841Z,23.66
2018-04-29T09:20:47.840Z,23.73
2018-04-29T09:21:48.103Z,23.78
2018-04-29T09:22:48.108Z,23.78
2018-04-29T09:23:49.766Z,23.84
2018-04-29T09:24:48.113Z,23.81
2018-04-29T09:25:48.124Z,23.77
2018-04-29T09:26:48.124Z,23.73
2018-04-29T09:27:48.126Z,23.69
2018-04-29T09:28:48.138Z,23.76
2018-04-29T09:29:48.135Z,23.78
2018-04-29T09:30:48.149Z,23.8
2018-04-29T09:31:47.899Z,23.76
2018-04-29T09:32:47.899Z,23.71
2018-04-29T09:33:48.159Z,23.69
2018-04-29T09:34:48.153Z,23.66
2018-04-29T09:35:47.910Z,23.56
2018-04-29T09:36:48.250Z,23.55
2018-04-29T09:37:47.915Z,23.56
2018-04-29T09:38:48.291Z,23.59
2018-04-29T09:39:47.921Z,23.63
2018-04-29T09:40:47.929Z,23.77
2018-04-29T09:41:47.936Z,23.73
2018-04-29T09:42:47.937Z,23.65
2018-04-29T09:43:48.080Z,23.76
2018-04-29T09:44:47.942Z,23.91
2018-04-29T09:45:48.225Z,23.98
2018-04-29T09:46:47.951Z,24.02
2018-04-29T09:47:47.964Z,24.06
2018-04-29T09:48:48.535Z,24.06
2018-04-29T09:49:47.962Z,24.16
2018-04-29T09:50:47.967Z,24.21
2018-04-29T09:51:47.976Z,24.28
2018-04-29T09:52:48.236Z,24.32
2018-04-29T09:53:48.425Z,24.28
2018-04-29T09:54:47.732Z,24.43
2018-04-29T09:55:48.244Z,24.5
2018-04-29T09:56:48.271Z,24.38
2018-04-29T09:57:47.993Z,24.35
2018-04-29T09:58:48.002Z,24.42
2018-04-29T09:59:48.006Z,24.47
2018-04-29T10:00:48.015Z,24.48
2018-04-29T10:01:48.013Z,24.6
2018-04-29T10:02:48.272Z,24.69
2018-04-29T10:03:48.299Z,24.68
2018-04-29T10:04:48.289Z,24.8
2018-04-29T10:05:48.025Z,24.85
2018-04-29T10:06:48.305Z,24.8
2018-04-29T10:07:48.041Z,24.78
2018-04-29T10:08:48.053Z,24.74
2018-04-29T10:09:47.806Z,24.65
2018-04-29T10:10:48.312Z,24.7
2018-04-29T10:11:48.061Z,24.8
2018-04-29T10:12:48.308Z,24.86
2018-04-29T10:13:48.353Z,24.84
2018-04-29T10:14:48.322Z,24.99
2018-04-29T10:15:48.407Z,24.98
2018-04-29T10:16:48.086Z,25.07
2018-04-29T10:17:48.084Z,24.99
2018-04-29T10:18:48.134Z,25.01
2018-04-29T10:19:48.839Z,25.03
2018-04-29T10:20:48.105Z,25.07
2018-04-29T10:21:48.373Z,25.1
2018-04-29T10:22:48.229Z,25.11
2018-04-29T10:53:31.197Z,25.41
2018-04-29T10:54:31.189Z,25.4
2018-04-29T10:55:30.634Z,25.46
2018-04-29T10:56:30.622Z,25.54
2018-04-29T10:57:31.119Z,25.63
2018-04-29T10:58:31.135Z,25.65
2018-04-29T10:59:30.641Z,25.72
2018-04-29T11:00:31.135Z,25.81
2018-04-29T11:01:30.976Z,25.84
2018-04-29T11:02:31.141Z,25.84
2018-04-29T11:03:31.166Z,25.88
2018-04-29T11:04:30.910Z,25.87
2018-04-29T11:05:30.900Z,25.85
2018-04-29T11:06:30.904Z,25.88
2018-04-29T11:07:30.914Z,25.93
2018-04-29T11:08:30.916Z,25.91
2018-04-29T11:09:30.929Z,25.8
2018-04-29T11:10:30.930Z,25.81
2018-04-29T11:11:31.185Z,25.87
2018-04-29T11:12:30.681Z,25.95
2018-04-29T11:13:30.932Z,26.09
2018-04-29T11:14:30.938Z,26.1
2018-04-29T11:15:31.207Z,26.07
2018-04-29T11:16:31.195Z,26.06
2018-04-29T11:17:30.944Z,26.09
2018-04-29T11:18:31.206Z,26.06
2018-04-29T11:19:31.216Z,26.18
2018-04-29T11:20:31.217Z,26.23
2018-04-29T11:21:30.721Z,26.23
2018-04-29T11:22:31.129Z,26.28
2018-04-29T11:23:31.137Z,26.33
2018-04-29T11:24:31.234Z,26.31
2018-04-29T11:25:31.277Z,26.33
2018-04-29T11:26:31.243Z,26.23
2018-04-29T11:27:31.078Z,26.26
2018-04-29T11:28:31.302Z,26.19
2018-04-29T11:29:30.760Z,26.23
2018-04-29T11:30:31.019Z,26.25
2018-04-29T11:31:31.021Z,26.25
2018-04-29T11:32:31.346Z,26.05
2018-04-29T11:33:31.030Z,26.18
2018-04-29T11:34:31.039Z,26.16
2018-04-29T11:35:31.295Z,26.22
2018-04-29T11:36:31.290Z,26.23
2018-04-29T11:37:30.808Z,26.23
2018-04-29T11:38:31.065Z,26.21
2018-04-29T11:39:31.060Z,26.23
2018-04-29T11:40:31.273Z,26.1
2018-04-29T11:41:31.330Z,25.98
2018-04-29T11:42:31.099Z,25.93
2018-04-29T11:43:31.339Z,25.88
2018-04-29T11:44:30.834Z,25.73
2018-04-29T11:45:31.108Z,25.7
2018-04-29T11:46:31.095Z,25.69
2018-04-29T11:47:31.100Z,25.83
2018-04-29T11:48:30.871Z,25.9
2018-04-29T11:49:31.364Z,26.07
2018-04-29T11:50:31.132Z,26.07
2018-04-29T11:51:31.134Z,26.19
2018-04-29T11:52:31.377Z,26.28
2018-04-29T11:53:31.135Z,26.37
2018-04-29T11:54:31.150Z,26.43
2018-04-29T11:55:31.403Z,26.44
2018-04-29T11:56:31.405Z,26.47
2018-04-29T11:57:31.396Z,26.55
2018-04-29T11:58:30.909Z,26.55
2018-04-29T11:59:31.175Z,26.52
2018-04-29T12:00:31.441Z,26.53
2018-04-29T12:01:31.515Z,26.58
2018-04-29T12:02:31.309Z,26.73
2018-04-29T12:03:31.437Z,26.59
2018-04-29T12:04:30.940Z,26.53
2018-04-29T12:05:31.451Z,26.52
2018-04-29T12:06:31.449Z,26.6
2018-04-29T12:07:31.201Z,26.6
2018-04-29T12:08:33.404Z,26.66
2018-04-29T12:09:31.475Z,26.75
2018-04-29T12:10:31.484Z,26.78
2018-04-29T12:11:31.561Z,26.81
2018-04-29T12:12:31.493Z,26.84
2018-04-29T12:13:31.237Z,26.93
2018-04-29T12:14:31.506Z,26.96
2018-04-29T12:15:31.508Z,27.11
2018-04-29T12:16:31.481Z,27.25
2018-04-29T12:17:31.506Z,27.3
2018-04-29T12:18:31.284Z,27.42
2018-04-29T12:19:31.530Z,27.42
2018-04-29T12:20:31.546Z,27.49
2018-04-29T12:21:31.032Z,27.58
2018-04-29T12:22:31.033Z,27.59
2018-04-29T12:23:33.148Z,27.6
2018-04-29T12:24:31.327Z,27.71
2018-04-29T12:25:31.308Z,27.68
2018-04-29T12:26:31.305Z,27.67
2018-04-29T12:27:31.323Z,27.67
2018-04-29T12:28:31.574Z,27.77
2018-04-29T12:29:31.324Z,27.65
2018-04-29T12:30:31.327Z,27.64
2018-04-29T12:31:31.582Z,27.64
2018-04-29T12:32:31.583Z,27.59
2018-04-29T12:33:31.776Z,27.6
2018-04-29T12:34:31.350Z,27.68
2018-04-29T12:35:31.622Z,27.71
2018-04-29T12:36:31.619Z,27.83
2018-04-29T12:37:31.364Z,27.83
2018-04-29T12:38:32.427Z,27.9
2018-04-29T12:39:31.376Z,27.92
2018-04-29T12:40:31.646Z,27.93
2018-04-29T12:41:31.637Z,27.96
2018-04-29T12:42:31.646Z,28.04
2018-04-29T12:43:31.429Z,28.04
2018-04-29T12:44:31.659Z,28.11
2018-04-29T12:45:31.674Z,28.07
2018-04-29T12:46:31.672Z,28.08
2018-04-29T12:47:31.674Z,28.1
2018-04-29T12:48:31.436Z,28.1
2018-04-29T12:49:31.442Z,28.17
2018-04-29T12:50:31.705Z,28.19
2018-04-29T12:51:31.446Z,28.17
2018-04-29T12:52:31.462Z,28.2
2018-04-29T12:53:31.462Z,28.17
2018-04-29T12:54:31.464Z,28.12
2018-04-29T12:55:31.741Z,28.1
2018-04-29T12:56:31.807Z,28.07
2018-04-29T12:57:31.731Z,28.1
2018-04-29T12:58:31.488Z,28
2018-04-29T12:59:31.747Z,27.95
2018-04-29T13:00:31.747Z,27.89
2018-04-29T13:01:31.757Z,27.95
2018-04-29T13:02:31.758Z,27.89
2018-04-29T13:03:31.766Z,28.01
2018-04-29T13:04:31.278Z,27.86
2018-04-29T13:05:31.869Z,27.9
2018-04-29T13:06:31.290Z,27.9
2018-04-29T13:07:31.794Z,27.9
2018-04-29T13:08:31.809Z,27.98
2018-04-29T13:09:31.803Z,27.93
2018-04-29T13:10:31.810Z,27.85
2018-04-29T13:11:31.823Z,27.85
2018-04-29T13:12:31.821Z,27.86
2018-04-29T13:13:31.576Z,27.8
2018-04-29T13:14:31.841Z,27.8
2018-04-29T13:15:31.368Z,27.83
2018-04-29T13:16:31.593Z,27.82
2018-04-29T13:17:31.936Z,27.83
2018-04-29T13:18:31.852Z,27.73
2018-04-29T13:19:31.861Z,27.8
2018-04-29T13:20:31.871Z,27.74
2018-04-29T13:21:31.672Z,27.78
2018-04-29T13:22:31.379Z,27.86
2018-04-29T13:23:31.679Z,27.8
2018-04-29T13:24:31.884Z,27.86
2018-04-29T13:25:31.897Z,27.98
2018-04-29T13:26:31.647Z,28.08
2018-04-29T13:27:32.618Z,28.07
2018-04-29T13:28:32.120Z,28.04
2018-04-29T13:29:31.970Z,28.07
2018-04-29T13:30:31.922Z,27.89
2018-04-29T13:31:31.430Z,27.7
2018-04-29T13:32:31.945Z,27.64
2018-04-29T13:33:31.696Z,27.49
2018-04-29T13:34:31.699Z,27.59
2018-04-29T13:35:31.968Z,27.6
2018-04-29T13:36:31.982Z,27.68
2018-04-29T13:37:31.468Z,27.73
2018-04-29T13:38:31.963Z,27.8
2018-04-29T13:39:31.980Z,27.9
2018-04-29T13:40:31.482Z,27.92
2018-04-29T13:41:31.735Z,27.87
2018-04-29T13:42:32.261Z,27.89
2018-04-29T13:43:31.839Z,27.9
2018-04-29T13:44:31.504Z,27.9
2018-04-29T13:45:32.027Z,27.92
2018-04-29T13:46:32.169Z,27.93
2018-04-29T13:47:31.531Z,27.92
2018-04-29T13:48:32.055Z,27.86
2018-04-29T13:49:32.044Z,27.83